sensor_id;sensor_type;location;lat;lon;timestamp;P1;durP1;ratioP1;P2;durP2;ratioP2
22026;SDS011;11177;50.966;10.070;2023-02-15T00:01:41;15.75;;;8.80;;
22026;SDS011;11177;50.966;10.070;2023-02-15T00:04:08;15.73;;;9.00;;
22026;SDS011;11177;50.966;10.070;2023-02-15T00:06:35;16.63;;;8.93;;
22026;SDS011;11177;50.966;10.070;2023-02-15T00:09:02;16.85;;;9.00;;
22026;SDS011;11177;50.966;10.070;2023-02-15T00:11:29;16.80;;;8.75;;
22026;SDS011;11177;50.966;10.070;2023-02-15T00:14:20;17.02;;;8.25;;
22026;SDS011;11177;50.966;10.070;2023-02-15T00:16:49;14.80;;;8.45;;
22026;SDS011;11177;50.966;10.070;2023-02-15T00:19:18;13.23;;;7.63;;
22026;SDS011;11177;50.966;10.070;2023-02-15T00:21:45;13.05;;;7.80;;
22026;SDS011;11177;50.966;10.070;2023-02-15T00:24:14;14.13;;;8.00;;
22026;SDS011;11177;50.966;10.070;2023-02-15T00:26:43;19.10;;;8.55;;
22026;SDS011;11177;50.966;10.070;2023-02-15T00:29:10;14.30;;;8.38;;
22026;SDS011;11177;50.966;10.070;2023-02-15T00:31:38;13.18;;;7.68;;
22026;SDS011;11177;50.966;10.070;2023-02-15T00:34:12;16.70;;;8.85;;
22026;SDS011;11177;50.966;10.070;2023-02-15T00:36:42;15.48;;;8.55;;
22026;SDS011;11177;50.966;10.070;2023-02-15T00:39:09;14.43;;;8.60;;
22026;SDS011;11177;50.966;10.070;2023-02-15T00:41:36;14.50;;;8.05;;
22026;SDS011;11177;50.966;10.070;2023-02-15T00:44:03;15.10;;;8.82;;
22026;SDS011;11177;50.966;10.070;2023-02-15T00:46:30;16.45;;;8.63;;
22026;SDS011;11177;50.966;10.070;2023-02-15T00:48:57;16.67;;;9.45;;
22026;SDS011;11177;50.966;10.070;2023-02-15T00:51:24;15.88;;;9.10;;
22026;SDS011;11177;50.966;10.070;2023-02-15T00:53:51;17.33;;;9.10;;
22026;SDS011;11177;50.966;10.070;2023-02-15T00:56:18;17.52;;;8.90;;
22026;SDS011;11177;50.966;10.070;2023-02-15T00:58:45;15.27;;;9.05;;
22026;SDS011;11177;50.966;10.070;2023-02-15T01:01:18;17.27;;;9.30;;
22026;SDS011;11177;50.966;10.070;2023-02-15T01:03:46;17.58;;;9.38;;
22026;SDS011;11177;50.966;10.070;2023-02-15T01:06:16;17.27;;;9.10;;
22026;SDS011;11177;50.966;10.070;2023-02-15T01:08:43;15.40;;;8.35;;
22026;SDS011;11177;50.966;10.070;2023-02-15T01:11:12;17.17;;;8.80;;
22026;SDS011;11177;50.966;10.070;2023-02-15T01:13:41;19.15;;;8.85;;
22026;SDS011;11177;50.966;10.070;2023-02-15T01:16:08;16.65;;;9.02;;
22026;SDS011;11177;50.966;10.070;2023-02-15T01:18:35;17.95;;;8.88;;
22026;SDS011;11177;50.966;10.070;2023-02-15T01:21:20;19.27;;;7.88;;
22026;SDS011;11177;50.966;10.070;2023-02-15T01:23:47;14.70;;;8.10;;
22026;SDS011;11177;50.966;10.070;2023-02-15T01:26:14;14.68;;;7.90;;
22026;SDS011;11177;50.966;10.070;2023-02-15T01:28:41;16.48;;;8.30;;
22026;SDS011;11177;50.966;10.070;2023-02-15T01:31:09;13.73;;;7.70;;
22026;SDS011;11177;50.966;10.070;2023-02-15T01:33:37;13.00;;;8.00;;
22026;SDS011;11177;50.966;10.070;2023-02-15T01:36:04;15.75;;;8.60;;
22026;SDS011;11177;50.966;10.070;2023-02-15T01:38:32;15.75;;;8.30;;
22026;SDS011;11177;50.966;10.070;2023-02-15T01:40:59;20.40;;;10.55;;
22026;SDS011;11177;50.966;10.070;2023-02-15T01:43:46;31.75;;;13.93;;
22026;SDS011;11177;50.966;10.070;2023-02-15T01:46:15;30.73;;;14.15;;
22026;SDS011;11177;50.966;10.070;2023-02-15T01:48:50;29.40;;;14.10;;
22026;SDS011;11177;50.966;10.070;2023-02-15T01:51:21;32.50;;;14.15;;
22026;SDS011;11177;50.966;10.070;2023-02-15T01:53:52;31.75;;;14.50;;
22026;SDS011;11177;50.966;10.070;2023-02-15T01:56:22;32.78;;;14.45;;
22026;SDS011;11177;50.966;10.070;2023-02-15T01:58:50;30.88;;;13.70;;
22026;SDS011;11177;50.966;10.070;2023-02-15T02:01:18;30.15;;;13.35;;
22026;SDS011;11177;50.966;10.070;2023-02-15T02:03:49;28.73;;;13.32;;
22026;SDS011;11177;50.966;10.070;2023-02-15T02:06:24;29.67;;;13.52;;
22026;SDS011;11177;50.966;10.070;2023-02-15T02:08:52;31.60;;;13.60;;
22026;SDS011;11177;50.966;10.070;2023-02-15T02:11:20;26.60;;;12.68;;
22026;SDS011;11177;50.966;10.070;2023-02-15T02:13:47;36.03;;;14.18;;
22026;SDS011;11177;50.966;10.070;2023-02-15T02:16:25;33.75;;;14.18;;
22026;SDS011;11177;50.966;10.070;2023-02-15T02:18:58;29.23;;;13.75;;
22026;SDS011;11177;50.966;10.070;2023-02-15T02:21:59;30.50;;;13.98;;
22026;SDS011;11177;50.966;10.070;2023-02-15T02:27:47;28.30;;;13.57;;
22026;SDS011;11177;50.966;10.070;2023-02-15T02:30:20;30.48;;;14.27;;
22026;SDS011;11177;50.966;10.070;2023-02-15T02:36:06;33.65;;;14.52;;
22026;SDS011;11177;50.966;10.070;2023-02-15T02:39:33;34.75;;;14.38;;
22026;SDS011;11177;50.966;10.070;2023-02-15T02:42:25;34.67;;;14.63;;
22026;SDS011;11177;50.966;10.070;2023-02-15T02:48:15;31.55;;;15.20;;
22026;SDS011;11177;50.966;10.070;2023-02-15T02:50:45;27.08;;;13.18;;
22026;SDS011;11177;50.966;10.070;2023-02-15T02:53:12;28.92;;;12.52;;
22026;SDS011;11177;50.966;10.070;2023-02-15T02:55:43;26.67;;;11.90;;
22026;SDS011;11177;50.966;10.070;2023-02-15T02:58:18;21.85;;;10.85;;
22026;SDS011;11177;50.966;10.070;2023-02-15T03:00:49;19.45;;;10.23;;
22026;SDS011;11177;50.966;10.070;2023-02-15T03:03:26;19.73;;;9.95;;
22026;SDS011;11177;50.966;10.070;2023-02-15T03:06:10;24.10;;;11.80;;
22026;SDS011;11177;50.966;10.070;2023-02-15T03:08:42;28.67;;;13.32;;
22026;SDS011;11177;50.966;10.070;2023-02-15T03:11:17;30.30;;;13.55;;
22026;SDS011;11177;50.966;10.070;2023-02-15T03:13:44;32.50;;;14.93;;
22026;SDS011;11177;50.966;10.070;2023-02-15T03:16:13;35.22;;;15.63;;
22026;SDS011;11177;50.966;10.070;2023-02-15T03:19:10;30.45;;;14.30;;
22026;SDS011;11177;50.966;10.070;2023-02-15T03:21:50;36.08;;;15.68;;
22026;SDS011;11177;50.966;10.070;2023-02-15T03:24:28;34.97;;;15.70;;
22026;SDS011;11177;50.966;10.070;2023-02-15T03:27:02;33.20;;;15.77;;
22026;SDS011;11177;50.966;10.070;2023-02-15T03:29:30;37.60;;;16.52;;
22026;SDS011;11177;50.966;10.070;2023-02-15T03:31:59;35.53;;;14.77;;
22026;SDS011;11177;50.966;10.070;2023-02-15T03:34:27;42.85;;;16.42;;
22026;SDS011;11177;50.966;10.070;2023-02-15T03:37:04;30.13;;;14.55;;
22026;SDS011;11177;50.966;10.070;2023-02-15T03:39:54;34.40;;;15.32;;
22026;SDS011;11177;50.966;10.070;2023-02-15T03:42:43;35.85;;;16.40;;
22026;SDS011;11177;50.966;10.070;2023-02-15T03:45:14;39.55;;;18.90;;
22026;SDS011;11177;50.966;10.070;2023-02-15T03:47:43;40.30;;;18.40;;
22026;SDS011;11177;50.966;10.070;2023-02-15T03:50:19;44.38;;;17.27;;
22026;SDS011;11177;50.966;10.070;2023-02-15T03:53:07;35.95;;;16.73;;
22026;SDS011;11177;50.966;10.070;2023-02-15T03:55:36;35.85;;;16.50;;
22026;SDS011;11177;50.966;10.070;2023-02-15T03:58:03;36.92;;;17.38;;
22026;SDS011;11177;50.966;10.070;2023-02-15T04:00:55;30.17;;;14.57;;
22026;SDS011;11177;50.966;10.070;2023-02-15T04:04:02;28.55;;;13.98;;
22026;SDS011;11177;50.966;10.070;2023-02-15T04:06:29;26.65;;;13.05;;
22026;SDS011;11177;50.966;10.070;2023-02-15T04:08:56;26.35;;;14.13;;
22026;SDS011;11177;50.966;10.070;2023-02-15T04:11:42;30.05;;;14.35;;
22026;SDS011;11177;50.966;10.070;2023-02-15T04:14:09;28.70;;;14.43;;
22026;SDS011;11177;50.966;10.070;2023-02-15T04:16:54;24.27;;;12.52;;
22026;SDS011;11177;50.966;10.070;2023-02-15T04:19:21;23.30;;;11.80;;
22026;SDS011;11177;50.966;10.070;2023-02-15T04:22:06;22.13;;;11.88;;
22026;SDS011;11177;50.966;10.070;2023-02-15T04:24:52;22.90;;;11.43;;
22026;SDS011;11177;50.966;10.070;2023-02-15T04:27:38;21.90;;;11.75;;
22026;SDS011;11177;50.966;10.070;2023-02-15T04:30:07;22.10;;;11.90;;
22026;SDS011;11177;50.966;10.070;2023-02-15T04:32:35;21.08;;;11.93;;
22026;SDS011;11177;50.966;10.070;2023-02-15T04:35:02;22.05;;;11.63;;
22026;SDS011;11177;50.966;10.070;2023-02-15T04:37:29;22.35;;;11.65;;
22026;SDS011;11177;50.966;10.070;2023-02-15T04:39:56;20.13;;;10.77;;
22026;SDS011;11177;50.966;10.070;2023-02-15T04:42:25;20.35;;;11.40;;
22026;SDS011;11177;50.966;10.070;2023-02-15T04:44:52;22.20;;;11.10;;
22026;SDS011;11177;50.966;10.070;2023-02-15T04:47:19;21.27;;;11.48;;
22026;SDS011;11177;50.966;10.070;2023-02-15T04:49:46;20.05;;;10.82;;
22026;SDS011;11177;50.966;10.070;2023-02-15T04:52:12;20.05;;;10.40;;
22026;SDS011;11177;50.966;10.070;2023-02-15T04:54:39;20.70;;;11.23;;
22026;SDS011;11177;50.966;10.070;2023-02-15T04:57:06;18.02;;;10.15;;
22026;SDS011;11177;50.966;10.070;2023-02-15T04:59:33;19.02;;;10.45;;
22026;SDS011;11177;50.966;10.070;2023-02-15T05:01:59;24.50;;;10.82;;
22026;SDS011;11177;50.966;10.070;2023-02-15T05:04:26;18.45;;;10.35;;
22026;SDS011;11177;50.966;10.070;2023-02-15T05:06:53;21.45;;;10.45;;
22026;SDS011;11177;50.966;10.070;2023-02-15T05:09:20;19.50;;;10.30;;
22026;SDS011;11177;50.966;10.070;2023-02-15T05:11:46;20.42;;;10.50;;
22026;SDS011;11177;50.966;10.070;2023-02-15T05:14:13;22.48;;;11.55;;
22026;SDS011;11177;50.966;10.070;2023-02-15T05:16:40;21.38;;;10.93;;
22026;SDS011;11177;50.966;10.070;2023-02-15T05:19:07;18.48;;;10.30;;
22026;SDS011;11177;50.966;10.070;2023-02-15T05:21:33;21.48;;;10.32;;
22026;SDS011;11177;50.966;10.070;2023-02-15T05:24:00;17.67;;;9.57;;
22026;SDS011;11177;50.966;10.070;2023-02-15T05:26:47;19.83;;;10.45;;
22026;SDS011;11177;50.966;10.070;2023-02-15T05:29:32;17.90;;;9.68;;
22026;SDS011;11177;50.966;10.070;2023-02-15T05:31:59;19.00;;;9.93;;
22026;SDS011;11177;50.966;10.070;2023-02-15T05:34:26;20.35;;;10.73;;
22026;SDS011;11177;50.966;10.070;2023-02-15T05:36:53;18.65;;;9.75;;
22026;SDS011;11177;50.966;10.070;2023-02-15T05:39:20;19.67;;;10.45;;
22026;SDS011;11177;50.966;10.070;2023-02-15T05:41:46;19.00;;;10.77;;
22026;SDS011;11177;50.966;10.070;2023-02-15T05:44:13;18.80;;;10.02;;
22026;SDS011;11177;50.966;10.070;2023-02-15T05:46:40;17.85;;;9.68;;
22026;SDS011;11177;50.966;10.070;2023-02-15T05:49:06;18.63;;;10.38;;
22026;SDS011;11177;50.966;10.070;2023-02-15T05:51:33;18.90;;;9.88;;
22026;SDS011;11177;50.966;10.070;2023-02-15T05:53:59;20.73;;;10.50;;
22026;SDS011;11177;50.966;10.070;2023-02-15T05:56:26;18.92;;;10.10;;
22026;SDS011;11177;50.966;10.070;2023-02-15T05:58:53;23.05;;;10.60;;
22026;SDS011;11177;50.966;10.070;2023-02-15T06:01:21;17.55;;;9.73;;
22026;SDS011;11177;50.966;10.070;2023-02-15T06:03:49;20.00;;;10.70;;
22026;SDS011;11177;50.966;10.070;2023-02-15T06:06:16;24.55;;;10.90;;
22026;SDS011;11177;50.966;10.070;2023-02-15T06:08:43;23.48;;;11.13;;
22026;SDS011;11177;50.966;10.070;2023-02-15T06:11:09;25.85;;;12.07;;
22026;SDS011;11177;50.966;10.070;2023-02-15T06:13:37;29.98;;;12.50;;
22026;SDS011;11177;50.966;10.070;2023-02-15T06:16:04;30.65;;;13.60;;
22026;SDS011;11177;50.966;10.070;2023-02-15T06:18:32;29.40;;;14.63;;
22026;SDS011;11177;50.966;10.070;2023-02-15T06:20:59;30.65;;;14.52;;
22026;SDS011;11177;50.966;10.070;2023-02-15T06:23:26;40.45;;;16.83;;
22026;SDS011;11177;50.966;10.070;2023-02-15T06:25:53;31.08;;;14.40;;
22026;SDS011;11177;50.966;10.070;2023-02-15T06:28:19;34.80;;;14.90;;
22026;SDS011;11177;50.966;10.070;2023-02-15T06:30:46;34.58;;;15.07;;
22026;SDS011;11177;50.966;10.070;2023-02-15T06:33:13;37.05;;;16.33;;
22026;SDS011;11177;50.966;10.070;2023-02-15T06:35:40;36.25;;;16.00;;
22026;SDS011;11177;50.966;10.070;2023-02-15T06:38:06;34.60;;;15.43;;
22026;SDS011;11177;50.966;10.070;2023-02-15T06:40:36;38.60;;;15.77;;
22026;SDS011;11177;50.966;10.070;2023-02-15T06:43:03;29.23;;;14.00;;
22026;SDS011;11177;50.966;10.070;2023-02-15T06:45:30;28.98;;;13.77;;
22026;SDS011;11177;50.966;10.070;2023-02-15T06:47:57;27.83;;;13.88;;
22026;SDS011;11177;50.966;10.070;2023-02-15T06:50:24;28.80;;;12.77;;
22026;SDS011;11177;50.966;10.070;2023-02-15T06:52:55;25.20;;;12.02;;
22026;SDS011;11177;50.966;10.070;2023-02-15T06:55:23;24.90;;;12.60;;
22026;SDS011;11177;50.966;10.070;2023-02-15T06:57:50;24.02;;;11.90;;
22026;SDS011;11177;50.966;10.070;2023-02-15T07:00:17;28.75;;;12.18;;
22026;SDS011;11177;50.966;10.070;2023-02-15T07:02:45;28.77;;;12.48;;
22026;SDS011;11177;50.966;10.070;2023-02-15T07:05:11;27.27;;;13.18;;
22026;SDS011;11177;50.966;10.070;2023-02-15T07:07:38;29.67;;;13.95;;
22026;SDS011;11177;50.966;10.070;2023-02-15T07:10:05;29.08;;;13.57;;
22026;SDS011;11177;50.966;10.070;2023-02-15T07:12:32;27.90;;;12.85;;
22026;SDS011;11177;50.966;10.070;2023-02-15T07:15:09;24.67;;;12.20;;
22026;SDS011;11177;50.966;10.070;2023-02-15T07:17:36;25.65;;;12.43;;
22026;SDS011;11177;50.966;10.070;2023-02-15T07:20:06;24.40;;;12.52;;
22026;SDS011;11177;50.966;10.070;2023-02-15T07:22:37;24.67;;;11.98;;
22026;SDS011;11177;50.966;10.070;2023-02-15T07:25:04;25.48;;;12.07;;
22026;SDS011;11177;50.966;10.070;2023-02-15T07:27:32;26.00;;;13.15;;
22026;SDS011;11177;50.966;10.070;2023-02-15T07:29:59;31.85;;;15.35;;
22026;SDS011;11177;50.966;10.070;2023-02-15T07:32:27;35.95;;;16.98;;
22026;SDS011;11177;50.966;10.070;2023-02-15T07:34:56;40.70;;;17.25;;
22026;SDS011;11177;50.966;10.070;2023-02-15T07:37:23;39.13;;;17.10;;
22026;SDS011;11177;50.966;10.070;2023-02-15T07:39:50;33.58;;;16.90;;
22026;SDS011;11177;50.966;10.070;2023-02-15T07:42:17;39.20;;;17.17;;
22026;SDS011;11177;50.966;10.070;2023-02-15T07:44:46;40.03;;;17.35;;
22026;SDS011;11177;50.966;10.070;2023-02-15T07:47:16;40.38;;;18.73;;
22026;SDS011;11177;50.966;10.070;2023-02-15T07:49:43;46.40;;;19.73;;
22026;SDS011;11177;50.966;10.070;2023-02-15T07:52:11;51.55;;;22.05;;
22026;SDS011;11177;50.966;10.070;2023-02-15T07:54:37;49.03;;;23.05;;
22026;SDS011;11177;50.966;10.070;2023-02-15T07:57:04;52.65;;;24.92;;
22026;SDS011;11177;50.966;10.070;2023-02-15T07:59:31;52.70;;;23.52;;
22026;SDS011;11177;50.966;10.070;2023-02-15T08:01:57;56.67;;;23.05;;
22026;SDS011;11177;50.966;10.070;2023-02-15T08:04:24;46.00;;;21.38;;
22026;SDS011;11177;50.966;10.070;2023-02-15T08:06:52;41.55;;;20.48;;
22026;SDS011;11177;50.966;10.070;2023-02-15T08:09:20;50.08;;;22.08;;
22026;SDS011;11177;50.966;10.070;2023-02-15T08:11:47;45.92;;;20.73;;
22026;SDS011;11177;50.966;10.070;2023-02-15T08:14:18;46.45;;;21.10;;
22026;SDS011;11177;50.966;10.070;2023-02-15T08:16:47;37.60;;;19.13;;
22026;SDS011;11177;50.966;10.070;2023-02-15T08:19:16;42.08;;;18.27;;
22026;SDS011;11177;50.966;10.070;2023-02-15T08:21:46;42.50;;;18.42;;
22026;SDS011;11177;50.966;10.070;2023-02-15T08:24:15;41.08;;;18.98;;
22026;SDS011;11177;50.966;10.070;2023-02-15T08:26:42;48.28;;;19.40;;
22026;SDS011;11177;50.966;10.070;2023-02-15T08:29:11;39.55;;;18.77;;
22026;SDS011;11177;50.966;10.070;2023-02-15T08:31:38;39.88;;;18.45;;
22026;SDS011;11177;50.966;10.070;2023-02-15T08:34:08;40.33;;;18.65;;
22026;SDS011;11177;50.966;10.070;2023-02-15T08:36:36;45.50;;;19.67;;
22026;SDS011;11177;50.966;10.070;2023-02-15T08:39:03;33.28;;;17.45;;
22026;SDS011;11177;50.966;10.070;2023-02-15T08:41:34;38.17;;;16.83;;
22026;SDS011;11177;50.966;10.070;2023-02-15T08:44:03;34.15;;;15.50;;
22026;SDS011;11177;50.966;10.070;2023-02-15T08:46:32;28.92;;;14.07;;
22026;SDS011;11177;50.966;10.070;2023-02-15T08:49:00;23.85;;;12.75;;
22026;SDS011;11177;50.966;10.070;2023-02-15T08:51:28;23.88;;;12.38;;
22026;SDS011;11177;50.966;10.070;2023-02-15T08:54:02;23.05;;;12.65;;
22026;SDS011;11177;50.966;10.070;2023-02-15T08:56:32;23.50;;;12.00;;
22026;SDS011;11177;50.966;10.070;2023-02-15T08:59:00;22.42;;;11.52;;
22026;SDS011;11177;50.966;10.070;2023-02-15T09:01:28;21.88;;;10.95;;
22026;SDS011;11177;50.966;10.070;2023-02-15T09:03:57;21.52;;;12.18;;
22026;SDS011;11177;50.966;10.070;2023-02-15T09:06:25;20.80;;;10.52;;
22026;SDS011;11177;50.966;10.070;2023-02-15T09:08:52;18.45;;;10.65;;
22026;SDS011;11177;50.966;10.070;2023-02-15T09:11:29;22.45;;;11.55;;
22026;SDS011;11177;50.966;10.070;2023-02-15T09:13:58;19.58;;;11.00;;
22026;SDS011;11177;50.966;10.070;2023-02-15T09:16:28;19.85;;;10.63;;
22026;SDS011;11177;50.966;10.070;2023-02-15T09:18:55;20.27;;;11.10;;
22026;SDS011;11177;50.966;10.070;2023-02-15T09:21:27;19.85;;;9.88;;
22026;SDS011;11177;50.966;10.070;2023-02-15T09:23:56;15.98;;;9.20;;
22026;SDS011;11177;50.966;10.070;2023-02-15T09:26:25;15.40;;;9.20;;
22026;SDS011;11177;50.966;10.070;2023-02-15T09:28:53;16.40;;;9.43;;
22026;SDS011;11177;50.966;10.070;2023-02-15T09:31:23;17.48;;;9.50;;
22026;SDS011;11177;50.966;10.070;2023-02-15T09:33:51;19.45;;;9.88;;
22026;SDS011;11177;50.966;10.070;2023-02-15T09:36:22;17.48;;;9.80;;
22026;SDS011;11177;50.966;10.070;2023-02-15T09:38:57;15.50;;;9.75;;
22026;SDS011;11177;50.966;10.070;2023-02-15T09:41:55;18.02;;;9.32;;
22026;SDS011;11177;50.966;10.070;2023-02-15T09:50:53;16.13;;;9.63;;
22026;SDS011;11177;50.966;10.070;2023-02-15T09:56:52;23.00;;;11.90;;
22026;SDS011;11177;50.966;10.070;2023-02-15T09:59:27;18.52;;;10.50;;
22026;SDS011;11177;50.966;10.070;2023-02-15T10:02:15;18.17;;;10.93;;
22026;SDS011;11177;50.966;10.070;2023-02-15T10:07:57;16.33;;;9.73;;
22026;SDS011;11177;50.966;10.070;2023-02-15T10:10:59;16.58;;;8.98;;
22026;SDS011;11177;50.966;10.070;2023-02-15T10:13:59;16.17;;;9.27;;
22026;SDS011;11177;50.966;10.070;2023-02-15T10:16:50;14.23;;;8.77;;
22026;SDS011;11177;50.966;10.070;2023-02-15T10:19:42;15.23;;;8.45;;
22026;SDS011;11177;50.966;10.070;2023-02-15T10:22:25;15.00;;;8.55;;
22026;SDS011;11177;50.966;10.070;2023-02-15T10:28:29;14.27;;;8.13;;
22026;SDS011;11177;50.966;10.070;2023-02-15T10:31:20;14.25;;;7.97;;
22026;SDS011;11177;50.966;10.070;2023-02-15T10:36:45;15.60;;;8.40;;
22026;SDS011;11177;50.966;10.070;2023-02-15T10:39:23;14.13;;;8.50;;
22026;SDS011;11177;50.966;10.070;2023-02-15T10:51:48;13.32;;;8.38;;
22026;SDS011;11177;50.966;10.070;2023-02-15T10:54:45;14.35;;;8.05;;
22026;SDS011;11177;50.966;10.070;2023-02-15T11:03:14;16.53;;;8.20;;
22026;SDS011;11177;50.966;10.070;2023-02-15T11:06:06;12.52;;;7.50;;
22026;SDS011;11177;50.966;10.070;2023-02-15T11:08:43;13.07;;;8.43;;
22026;SDS011;11177;50.966;10.070;2023-02-15T11:11:21;13.27;;;7.88;;
22026;SDS011;11177;50.966;10.070;2023-02-15T11:13:50;15.55;;;8.13;;
22026;SDS011;11177;50.966;10.070;2023-02-15T11:16:21;14.18;;;8.23;;
22026;SDS011;11177;50.966;10.070;2023-02-15T11:18:51;14.45;;;8.38;;
22026;SDS011;11177;50.966;10.070;2023-02-15T11:21:48;12.65;;;8.30;;
22026;SDS011;11177;50.966;10.070;2023-02-15T11:24:16;12.80;;;8.07;;
22026;SDS011;11177;50.966;10.070;2023-02-15T11:26:49;12.82;;;7.60;;
22026;SDS011;11177;50.966;10.070;2023-02-15T11:29:21;12.35;;;7.90;;
22026;SDS011;11177;50.966;10.070;2023-02-15T11:31:50;12.57;;;8.15;;
22026;SDS011;11177;50.966;10.070;2023-02-15T11:34:23;12.25;;;7.50;;
22026;SDS011;11177;50.966;10.070;2023-02-15T11:36:55;13.82;;;7.85;;
22026;SDS011;11177;50.966;10.070;2023-02-15T11:39:25;12.32;;;7.72;;
22026;SDS011;11177;50.966;10.070;2023-02-15T11:41:55;15.52;;;9.68;;
22026;SDS011;11177;50.966;10.070;2023-02-15T11:44:33;11.98;;;7.40;;
22026;SDS011;11177;50.966;10.070;2023-02-15T11:47:02;11.40;;;7.25;;
22026;SDS011;11177;50.966;10.070;2023-02-15T11:49:32;10.32;;;7.18;;
22026;SDS011;11177;50.966;10.070;2023-02-15T11:52:22;12.25;;;7.43;;
22026;SDS011;11177;50.966;10.070;2023-02-15T11:54:48;12.05;;;7.88;;
22026;SDS011;11177;50.966;10.070;2023-02-15T11:57:21;13.50;;;8.40;;
22026;SDS011;11177;50.966;10.070;2023-02-15T11:59:56;14.15;;;8.32;;
22026;SDS011;11177;50.966;10.070;2023-02-15T12:02:45;14.07;;;7.97;;
22026;SDS011;11177;50.966;10.070;2023-02-15T12:05:17;16.13;;;8.48;;
22026;SDS011;11177;50.966;10.070;2023-02-15T12:07:55;13.70;;;8.60;;
22026;SDS011;11177;50.966;10.070;2023-02-15T12:10:31;15.05;;;9.18;;
22026;SDS011;11177;50.966;10.070;2023-02-15T12:13:11;12.15;;;7.72;;
22026;SDS011;11177;50.966;10.070;2023-02-15T12:15:46;12.57;;;7.18;;
22026;SDS011;11177;50.966;10.070;2023-02-15T12:21:05;11.20;;;6.55;;
22026;SDS011;11177;50.966;10.070;2023-02-15T12:23:34;9.13;;;5.88;;
22026;SDS011;11177;50.966;10.070;2023-02-15T12:26:08;10.55;;;6.10;;
22026;SDS011;11177;50.966;10.070;2023-02-15T12:28:36;7.38;;;5.20;;
22026;SDS011;11177;50.966;10.070;2023-02-15T12:31:21;8.50;;;5.50;;
22026;SDS011;11177;50.966;10.070;2023-02-15T12:33:50;8.75;;;6.00;;
22026;SDS011;11177;50.966;10.070;2023-02-15T12:36:30;11.10;;;5.80;;
22026;SDS011;11177;50.966;10.070;2023-02-15T12:44:52;8.23;;;5.30;;
22026;SDS011;11177;50.966;10.070;2023-02-15T12:47:23;8.45;;;6.00;;
22026;SDS011;11177;50.966;10.070;2023-02-15T12:50:06;9.65;;;5.90;;
22026;SDS011;11177;50.966;10.070;2023-02-15T12:53:03;9.50;;;5.95;;
22026;SDS011;11177;50.966;10.070;2023-02-15T12:55:33;8.88;;;5.30;;
22026;SDS011;11177;50.966;10.070;2023-02-15T12:58:08;7.70;;;5.60;;
22026;SDS011;11177;50.966;10.070;2023-02-15T13:01:01;9.43;;;6.07;;
22026;SDS011;11177;50.966;10.070;2023-02-15T13:06:52;8.95;;;5.80;;
22026;SDS011;11177;50.966;10.070;2023-02-15T13:09:26;8.85;;;5.72;;
22026;SDS011;11177;50.966;10.070;2023-02-15T13:12:16;8.57;;;5.70;;
22026;SDS011;11177;50.966;10.070;2023-02-15T13:14:45;11.73;;;6.32;;
22026;SDS011;11177;50.966;10.070;2023-02-15T13:17:13;10.02;;;6.28;;
22026;SDS011;11177;50.966;10.070;2023-02-15T13:19:46;10.43;;;6.18;;
22026;SDS011;11177;50.966;10.070;2023-02-15T13:22:18;10.18;;;6.18;;
22026;SDS011;11177;50.966;10.070;2023-02-15T13:24:49;10.38;;;6.45;;
22026;SDS011;11177;50.966;10.070;2023-02-15T13:27:19;9.90;;;6.25;;
22026;SDS011;11177;50.966;10.070;2023-02-15T13:29:51;10.73;;;6.50;;
22026;SDS011;11177;50.966;10.070;2023-02-15T13:32:25;10.38;;;6.35;;
22026;SDS011;11177;50.966;10.070;2023-02-15T13:34:56;14.18;;;6.32;;
22026;SDS011;11177;50.966;10.070;2023-02-15T13:37:41;11.10;;;6.10;;
22026;SDS011;11177;50.966;10.070;2023-02-15T13:40:20;7.78;;;5.72;;
22026;SDS011;11177;50.966;10.070;2023-02-15T13:42:54;10.05;;;6.25;;
22026;SDS011;11177;50.966;10.070;2023-02-15T13:45:59;10.80;;;6.15;;
22026;SDS011;11177;50.966;10.070;2023-02-15T13:48:27;9.07;;;5.95;;
22026;SDS011;11177;50.966;10.070;2023-02-15T13:51:21;9.02;;;5.95;;
22026;SDS011;11177;50.966;10.070;2023-02-15T13:54:01;11.15;;;6.90;;
22026;SDS011;11177;50.966;10.070;2023-02-15T13:56:53;9.70;;;6.38;;
22026;SDS011;11177;50.966;10.070;2023-02-15T14:03:01;11.45;;;6.38;;
22026;SDS011;11177;50.966;10.070;2023-02-15T14:08:25;10.90;;;6.53;;
22026;SDS011;11177;50.966;10.070;2023-02-15T14:19:54;9.23;;;6.05;;
22026;SDS011;11177;50.966;10.070;2023-02-15T14:22:40;9.05;;;5.80;;
22026;SDS011;11177;50.966;10.070;2023-02-15T14:25:25;8.13;;;5.47;;
22026;SDS011;11177;50.966;10.070;2023-02-15T14:28:09;10.13;;;6.38;;
22026;SDS011;11177;50.966;10.070;2023-02-15T14:30:40;10.90;;;6.32;;
22026;SDS011;11177;50.966;10.070;2023-02-15T14:36:00;9.00;;;5.93;;
22026;SDS011;11177;50.966;10.070;2023-02-15T14:38:39;11.90;;;7.63;;
22026;SDS011;11177;50.966;10.070;2023-02-15T14:41:29;11.45;;;7.25;;
22026;SDS011;11177;50.966;10.070;2023-02-15T14:48:15;9.27;;;5.95;;
22026;SDS011;11177;50.966;10.070;2023-02-15T14:49:45;9.38;;;5.93;;
22026;SDS011;11177;50.966;10.070;2023-02-15T14:52:12;9.35;;;5.88;;
22026;SDS011;11177;50.966;10.070;2023-02-15T14:57:26;10.88;;;6.63;;
22026;SDS011;11177;50.966;10.070;2023-02-15T14:59:57;12.68;;;6.95;;
22026;SDS011;11177;50.966;10.070;2023-02-15T15:02:26;10.50;;;7.20;;
22026;SDS011;11177;50.966;10.070;2023-02-15T15:05:19;10.50;;;6.60;;
22026;SDS011;11177;50.966;10.070;2023-02-15T15:07:56;11.05;;;6.70;;
22026;SDS011;11177;50.966;10.070;2023-02-15T15:16:23;12.63;;;6.97;;
22026;SDS011;11177;50.966;10.070;2023-02-15T15:19:10;10.13;;;6.70;;
22026;SDS011;11177;50.966;10.070;2023-02-15T15:27:40;10.73;;;7.05;;
22026;SDS011;11177;50.966;10.070;2023-02-15T15:33:25;10.88;;;6.80;;
22026;SDS011;11177;50.966;10.070;2023-02-15T15:36:13;12.65;;;7.35;;
22026;SDS011;11177;50.966;10.070;2023-02-15T15:41:48;13.48;;;8.35;;
22026;SDS011;11177;50.966;10.070;2023-02-15T15:48:03;13.85;;;8.10;;
22026;SDS011;11177;50.966;10.070;2023-02-15T15:50:52;14.65;;;9.48;;
22026;SDS011;11177;50.966;10.070;2023-02-15T15:53:23;17.08;;;11.98;;
22026;SDS011;11177;50.966;10.070;2023-02-15T15:55:52;17.33;;;12.10;;
22026;SDS011;11177;50.966;10.070;2023-02-15T15:58:26;14.70;;;10.18;;
22026;SDS011;11177;50.966;10.070;2023-02-15T16:00:54;17.90;;;11.60;;
22026;SDS011;11177;50.966;10.070;2023-02-15T16:03:27;17.92;;;11.02;;
22026;SDS011;11177;50.966;10.070;2023-02-15T16:05:55;19.05;;;10.85;;
22026;SDS011;11177;50.966;10.070;2023-02-15T16:08:32;17.17;;;10.95;;
22026;SDS011;11177;50.966;10.070;2023-02-15T16:11:15;17.80;;;11.85;;
22026;SDS011;11177;50.966;10.070;2023-02-15T16:13:46;19.05;;;12.40;;
22026;SDS011;11177;50.966;10.070;2023-02-15T16:16:13;14.85;;;8.70;;
22026;SDS011;11177;50.966;10.070;2023-02-15T16:18:47;15.18;;;9.23;;
22026;SDS011;11177;50.966;10.070;2023-02-15T16:21:17;15.23;;;9.10;;
22026;SDS011;11177;50.966;10.070;2023-02-15T16:23:50;25.40;;;13.70;;
22026;SDS011;11177;50.966;10.070;2023-02-15T16:26:48;29.23;;;14.88;;
22026;SDS011;11177;50.966;10.070;2023-02-15T16:29:27;23.60;;;13.30;;
22026;SDS011;11177;50.966;10.070;2023-02-15T16:37:21;15.25;;;8.75;;